Time;durP1;ratioP1;P1;durP2;ratioP2;P2;SDS_P1;SDS_P2;PMS_P1;PMS_P2;Temp;Humidity;BMP_temperature;BMP_pressure;BME280_temperature;BME280_humidity;BME280_pressure;Samples;Min_cycle;Max_cycle;Signal;HPM_P1;HPM_P2
2021/04/06 00:00:39;;;;;;;361.17;209.35;;;;;;;;;;4974070;28;20035;-79
2021/04/06 00:03:06;;;;;;;368.55;214.05;;;;;;;;;;4978874;28;20059;-78
2021/04/06 00:05:33;;;;;;;365.92;213.05;;;;;;;;;;4975754;28;20041;-77
2021/04/06 00:08:01;;;;;;;365.00;212.30;;;;;;;;;;4975460;28;20023;-78
2021/04/06 00:10:33;;;;;;;367.55;216.93;;;;;;;;;;4974390;28;20089;-78
2021/04/06 00:12:59;;;;;;;374.35;218.35;;;;;;;;;;4976440;28;20034;-78
2021/04/06 00:15:26;;;;;;;365.80;220.65;;;;;;;;;;4998739;28;20041;-76
2021/04/06 00:17:54;;;;;;;369.40;209.23;;;;;;;;;;4977349;28;20097;-78
2021/04/06 00:20:21;;;;;;;367.02;212.48;;;;;;;;;;4974331;28;20038;-78
2021/04/06 00:22:48;;;;;;;369.38;222.65;;;;;;;;;;4991747;28;20092;-78
2021/04/06 00:25:15;;;;;;;371.70;225.07;;;;;;;;;;4968286;28;20034;-77
2021/04/06 00:27:43;;;;;;;372.45;215.30;;;;;;;;;;4972394;28;20033;-78
2021/04/06 00:30:11;;;;;;;373.15;212.00;;;;;;;;;;4988733;28;20101;-77
2021/04/06 00:32:38;;;;;;;367.30;218.50;;;;;;;;;;4990134;28;20134;-77
2021/04/06 00:35:05;;;;;;;369.63;214.70;;;;;;;;;;4973531;28;20022;-77
2021/04/06 00:37:32;;;;;;;376.10;225.15;;;;;;;;;;4974839;28;20495;-77
2021/04/06 00:40:09;;;;;;;374.02;220.90;;;;;;;;;;4977028;28;20470;-77
2021/04/06 00:42:35;;;;;;;370.77;220.50;;;;;;;;;;4978195;28;20034;-76
2021/04/06 00:45:13;;;;;;;373.95;230.65;;;;;;;;;;4990353;28;20042;-77
2021/04/06 00:47:39;;;;;;;374.17;220.23;;;;;;;;;;4977654;28;20065;-77
2021/04/06 00:50:08;;;;;;;376.85;223.63;;;;;;;;;;4993952;28;20027;-76
2021/04/06 00:52:33;;;;;;;378.25;224.52;;;;;;;;;;4967534;28;20054;-76
2021/04/06 00:55:01;;;;;;;376.95;219.05;;;;;;;;;;4975575;28;20038;-77
2021/04/06 00:57:28;;;;;;;384.98;220.23;;;;;;;;;;4976881;28;20030;-76
2021/04/06 01:00:09;;;;;;;387.30;225.95;;;;;;;;;;4992748;28;20113;-76
2021/04/06 01:02:35;;;;;;;392.70;218.27;;;;;;;;;;4993181;28;20041;-78
2021/04/06 01:05:04;;;;;;;419.83;231.00;;;;;;;;;;5000183;28;20030;-77
2021/04/06 01:07:33;;;;;;;426.85;221.13;;;;;;;;;;4979263;28;20041;-78
2021/04/06 01:10:00;;;;;;;406.95;228.85;;;;;;;;;;4974823;28;20021;-78
2021/04/06 01:12:27;;;;;;;423.98;223.43;;;;;;;;;;4996485;28;20045;-78
2021/04/06 01:15:01;;;;;;;439.50;241.23;;;;;;;;;;4998555;28;20034;-77
2021/04/06 01:17:32;;;;;;;457.48;231.85;;;;;;;;;;4995268;28;20081;-78
2021/04/06 01:20:08;;;;;;;442.10;226.02;;;;;;;;;;4968813;28;20038;-77
2021/04/06 01:22:36;;;;;;;467.85;228.80;;;;;;;;;;5001388;28;20034;-78
2021/04/06 01:25:03;;;;;;;485.45;239.77;;;;;;;;;;4979224;28;20038;-78
2021/04/06 01:27:29;;;;;;;560.88;252.25;;;;;;;;;;4975514;28;20542;-77
2021/04/06 01:29:56;;;;;;;565.70;247.75;;;;;;;;;;4986968;28;20030;-78
2021/04/06 01:32:23;;;;;;;373.52;218.80;;;;;;;;;;4980281;28;20042;-78
2021/04/06 01:34:50;;;;;;;567.40;267.85;;;;;;;;;;4980290;28;20474;-77
2021/04/06 01:37:20;;;;;;;559.67;247.20;;;;;;;;;;4991029;28;20018;-77
2021/04/06 01:39:48;;;;;;;298.80;186.30;;;;;;;;;;4960129;28;20058;-78
2021/04/06 01:42:14;;;;;;;399.63;221.85;;;;;;;;;;4997108;28;20022;-78
2021/04/06 01:44:43;;;;;;;576.47;261.45;;;;;;;;;;4968866;28;20133;-77
2021/04/06 01:47:13;;;;;;;380.25;219.18;;;;;;;;;;4979373;28;20026;-78
2021/04/06 01:49:39;;;;;;;598.55;272.98;;;;;;;;;;4976853;28;20113;-80
2021/04/06 01:52:05;;;;;;;376.05;224.27;;;;;;;;;;4995057;28;20031;-80
2021/04/06 01:54:34;;;;;;;366.70;209.80;;;;;;;;;;4974024;28;20505;-78
2021/04/06 01:57:08;;;;;;;367.35;215.57;;;;;;;;;;4979204;28;20022;-79
2021/04/06 01:59:38;;;;;;;388.70;221.48;;;;;;;;;;4966960;28;20484;-82
2021/04/06 02:02:04;;;;;;;566.80;250.10;;;;;;;;;;4979511;28;20058;-78
2021/04/06 02:04:31;;;;;;;378.60;223.70;;;;;;;;;;4973862;28;20042;-80
2021/04/06 02:07:01;;;;;;;381.80;224.93;;;;;;;;;;4977920;28;20169;-78
2021/04/06 02:09:27;;;;;;;382.95;219.13;;;;;;;;;;4993953;28;20382;-82
2021/04/06 02:11:53;;;;;;;381.50;212.80;;;;;;;;;;4998197;28;20026;-80
2021/04/06 02:14:20;;;;;;;386.63;237.57;;;;;;;;;;4988971;28;20037;-77
2021/04/06 02:16:53;;;;;;;386.77;214.20;;;;;;;;;;4993297;28;20026;-81
2021/04/06 02:19:24;;;;;;;390.35;225.32;;;;;;;;;;4976110;28;20563;-78
2021/04/06 02:22:00;;;;;;;451.30;222.95;;;;;;;;;;4982650;28;20097;-78
2021/04/06 02:24:28;;;;;;;557.53;241.70;;;;;;;;;;4971860;28;20026;-81
2021/04/06 02:27:01;;;;;;;367.50;218.02;;;;;;;;;;4975192;28;20109;-77
2021/04/06 02:29:27;;;;;;;364.88;210.20;;;;;;;;;;4967176;28;20019;-78
2021/04/06 02:31:53;;;;;;;377.23;217.38;;;;;;;;;;4976236;28;20027;-78
2021/04/06 02:34:19;;;;;;;392.83;216.80;;;;;;;;;;4991247;28;20052;-79
2021/04/06 02:36:46;;;;;;;574.72;254.13;;;;;;;;;;4972134;28;20126;-79
2021/04/06 02:39:12;;;;;;;373.85;210.30;;;;;;;;;;4974423;28;20022;-80
2021/04/06 02:41:38;;;;;;;393.52;209.52;;;;;;;;;;4972999;28;20142;-77
2021/04/06 02:44:04;;;;;;;578.33;258.63;;;;;;;;;;4990327;28;20110;-78
2021/04/06 02:46:32;;;;;;;366.80;215.65;;;;;;;;;;4971524;28;20037;-79
2021/04/06 02:48:59;;;;;;;368.52;214.25;;;;;;;;;;4994991;28;20173;-80
2021/04/06 02:51:25;;;;;;;373.63;214.45;;;;;;;;;;4972415;28;20060;-78
2021/04/06 02:53:52;;;;;;;571.85;252.25;;;;;;;;;;4975701;28;20022;-79
2021/04/06 02:56:31;;;;;;;354.95;207.13;;;;;;;;;;4990196;28;20459;-78
2021/04/06 02:59:11;;;;;;;371.45;209.50;;;;;;;;;;5001105;28;20029;-79
2021/04/06 03:01:37;;;;;;;;;;;;;;;;;;4990375;28;20027;-80
2021/04/06 03:04:03;;;;;;;365.80;205.57;;;;;;;;;;4988795;28;19961;-79
2021/04/06 03:06:33;;;;;;;357.75;212.27;;;;;;;;;;4973024;28;20030;-79
2021/04/06 03:09:05;;;;;;;357.00;205.15;;;;;;;;;;4990298;28;20430;-82
2021/04/06 03:11:40;;;;;;;367.77;214.63;;;;;;;;;;4990045;28;20098;-80
2021/04/06 03:14:07;;;;;;;372.27;204.63;;;;;;;;;;4976252;28;20125;-81
2021/04/06 03:16:33;;;;;;;387.52;211.93;;;;;;;;;;4974626;28;20122;-79
2021/04/06 03:19:03;;;;;;;551.70;234.23;;;;;;;;;;4990908;28;20026;-81
2021/04/06 03:21:29;;;;;;;358.15;204.25;;;;;;;;;;4975992;28;20033;-80
2021/04/06 03:23:55;;;;;;;365.05;213.60;;;;;;;;;;4974984;28;20696;-81
2021/04/06 03:26:23;;;;;;;365.88;208.93;;;;;;;;;;4974202;28;20106;-78
2021/04/06 03:28:49;;;;;;;367.10;215.80;;;;;;;;;;4974505;28;20394;-80
2021/04/06 03:31:18;;;;;;;361.50;208.18;;;;;;;;;;4991394;28;20647;-79
2021/04/06 03:33:45;;;;;;;357.87;205.10;;;;;;;;;;4982076;28;20050;-82
2021/04/06 03:36:24;;;;;;;365.88;215.07;;;;;;;;;;4992615;28;20030;-79
2021/04/06 03:38:53;;;;;;;369.50;215.95;;;;;;;;;;4968765;28;20691;-80
2021/04/06 03:41:19;;;;;;;371.75;212.75;;;;;;;;;;4970109;28;20344;-81
2021/04/06 03:43:45;;;;;;;374.80;220.13;;;;;;;;;;4988658;28;20037;-80
2021/04/06 03:46:11;;;;;;;375.23;217.05;;;;;;;;;;4975202;28;20023;-81
2021/04/06 03:48:39;;;;;;;369.88;211.15;;;;;;;;;;4973244;28;20490;-81
2021/04/06 03:51:22;;;;;;;383.55;213.30;;;;;;;;;;4992605;28;20026;-81
2021/04/06 03:53:48;;;;;;;391.40;213.95;;;;;;;;;;4976786;28;20033;-80
2021/04/06 03:56:14;;;;;;;398.20;214.40;;;;;;;;;;4975914;28;20435;-84
2021/04/06 03:58:44;;;;;;;460.50;229.25;;;;;;;;;;4989345;28;20026;-83
2021/04/06 04:01:14;;;;;;;428.23;227.15;;;;;;;;;;4962258;28;20030;-82
2021/04/06 04:03:40;;;;;;;442.45;220.07;;;;;;;;;;4972555;28;20031;-83
2021/04/06 04:06:06;;;;;;;470.05;230.88;;;;;;;;;;4993567;28;20113;-82
2021/04/06 04:08:32;;;;;;;548.58;241.57;;;;;;;;;;4959379;28;20034;-80
2021/04/06 04:10:59;;;;;;;355.10;201.32;;;;;;;;;;4986694;28;20065;-78
2021/04/06 04:13:24;;;;;;;357.83;206.27;;;;;;;;;;4974293;28;20037;-84
2021/04/06 04:15:51;;;;;;;367.30;217.88;;;;;;;;;;4972536;28;20031;-78
2021/04/06 04:18:17;;;;;;;359.48;218.25;;;;;;;;;;4967538;28;20524;-83
2021/04/06 04:20:43;;;;;;;357.45;214.60;;;;;;;;;;4969485;28;20030;-81
2021/04/06 04:23:09;;;;;;;370.60;226.63;;;;;;;;;;4978462;28;20041;-83
2021/04/06 04:25:35;;;;;;;365.35;219.82;;;;;;;;;;4967704;28;20031;-78
2021/04/06 04:28:01;;;;;;;369.85;219.23;;;;;;;;;;4974330;28;20644;-80
2021/04/06 04:30:47;;;;;;;374.50;214.65;;;;;;;;;;4974375;28;20030;-82
2021/04/06 04:33:28;;;;;;;490.17;222.52;;;;;;;;;;4982318;28;20411;-79
2021/04/06 04:35:53;;;;;;;549.45;237.98;;;;;;;;;;4970984;28;20039;-80
2021/04/06 04:38:19;;;;;;;430.80;211.60;;;;;;;;;;4969419;28;20058;-79
2021/04/06 04:40:45;;;;;;;369.83;212.88;;;;;;;;;;4965013;28;20045;-78
2021/04/06 04:43:12;;;;;;;405.02;206.27;;;;;;;;;;4984787;28;20030;-79
2021/04/06 04:45:38;;;;;;;558.28;243.60;;;;;;;;;;4973141;28;20034;-81
2021/04/06 04:48:05;;;;;;;375.88;216.75;;;;;;;;;;4975981;28;20394;-79
2021/04/06 04:50:31;;;;;;;362.23;212.48;;;;;;;;;;4974017;28;20038;-81
2021/04/06 04:52:57;;;;;;;365.42;206.32;;;;;;;;;;4971403;28;20114;-82
2021/04/06 04:55:23;;;;;;;379.00;210.48;;;;;;;;;;4985293;28;20664;-79
2021/04/06 04:57:49;;;;;;;551.83;237.63;;;;;;;;;;4984895;28;20038;-80
2021/04/06 05:00:16;;;;;;;375.17;215.73;;;;;;;;;;4996188;28;20695;-80
2021/04/06 05:02:42;;;;;;;360.50;205.48;;;;;;;;;;4978116;28;20030;-79
2021/04/06 05:05:09;;;;;;;359.50;201.27;;;;;;;;;;4974973;28;20086;-81
2021/04/06 05:07:38;;;;;;;356.65;204.65;;;;;;;;;;4975421;28;20093;-82
2021/04/06 05:10:08;;;;;;;444.05;219.02;;;;;;;;;;4994886;28;20820;-81
2021/04/06 05:12:34;;;;;;;553.45;238.25;;;;;;;;;;4969293;28;20023;-81
2021/04/06 05:15:01;;;;;;;358.35;195.35;;;;;;;;;;4977687;28;20486;-81
2021/04/06 05:17:27;;;;;;;367.90;223.40;;;;;;;;;;5003396;28;20030;-81
2021/04/06 05:19:53;;;;;;;388.90;202.35;;;;;;;;;;4986711;28;20501;-81
2021/04/06 05:22:19;;;;;;;546.58;238.15;;;;;;;;;;4974104;28;20182;-82
2021/04/06 05:24:45;;;;;;;368.10;219.15;;;;;;;;;;4976829;28;20038;-81
2021/04/06 05:27:11;;;;;;;365.98;215.65;;;;;;;;;;4983815;28;20027;-81
2021/04/06 05:29:37;;;;;;;363.90;213.35;;;;;;;;;;4966233;28;20030;-78
2021/04/06 05:32:03;;;;;;;549.13;241.43;;;;;;;;;;4961810;28;20062;-81
2021/04/06 05:34:29;;;;;;;358.48;207.57;;;;;;;;;;4992595;28;20062;-82
2021/04/06 05:36:55;;;;;;;357.55;209.60;;;;;;;;;;4973724;28;20034;-82
2021/04/06 05:39:22;;;;;;;359.77;212.32;;;;;;;;;;4977242;28;20117;-80
2021/04/06 05:41:48;;;;;;;359.55;219.02;;;;;;;;;;4958741;28;20390;-83
2021/04/06 05:44:15;;;;;;;358.10;212.07;;;;;;;;;;4987363;28;20414;-82
2021/04/06 05:46:41;;;;;;;359.52;214.73;;;;;;;;;;4977460;28;20489;-81
2021/04/06 05:49:15;;;;;;;353.10;207.00;;;;;;;;;;4994681;28;20032;-82
2021/04/06 05:51:42;;;;;;;358.92;212.70;;;;;;;;;;4965672;28;20117;-84
2021/04/06 05:54:10;;;;;;;368.10;222.93;;;;;;;;;;4977783;28;20485;-84
2021/04/06 05:56:36;;;;;;;359.77;213.98;;;;;;;;;;4985508;28;20034;-85
2021/04/06 05:59:03;;;;;;;355.90;204.65;;;;;;;;;;4971289;28;20030;-85
2021/04/06 06:01:30;;;;;;;359.55;217.13;;;;;;;;;;4970465;28;20656;-84
2021/04/06 06:03:56;;;;;;;359.83;221.38;;;;;;;;;;4993915;28;20042;-80
2021/04/06 06:06:23;;;;;;;354.80;210.57;;;;;;;;;;4991327;28;20045;-78
2021/04/06 06:08:57;;;;;;;357.63;209.60;;;;;;;;;;4973803;28;20034;-85
2021/04/06 06:11:23;;;;;;;353.90;209.75;;;;;;;;;;4990840;28;20501;-84
2021/04/06 06:13:49;;;;;;;354.30;205.68;;;;;;;;;;4972118;28;20031;-85
2021/04/06 06:16:16;;;;;;;371.25;228.13;;;;;;;;;;4994046;28;20033;-79
2021/04/06 06:18:59;;;;;;;351.02;204.70;;;;;;;;;;4988822;28;20053;-83
2021/04/06 06:21:36;;;;;;;354.75;216.32;;;;;;;;;;4968864;28;20113;-84
2021/04/06 06:24:03;;;;;;;357.05;212.07;;;;;;;;;;4966440;28;20067;-81
2021/04/06 06:26:29;;;;;;;355.60;207.02;;;;;;;;;;4975131;28;20026;-80
2021/04/06 06:29:08;;;;;;;346.15;194.45;;;;;;;;;;4972742;28;20113;-82
2021/04/06 06:31:41;;;;;;;360.17;211.15;;;;;;;;;;4988965;28;20027;-82
2021/04/06 06:34:26;;;;;;;365.05;217.27;;;;;;;;;;4988215;28;20045;-83
2021/04/06 06:37:11;;;;;;;367.65;209.80;;;;;;;;;;4988879;28;20065;-81
2021/04/06 06:39:56;;;;;;;369.42;208.95;;;;;;;;;;5000081;28;20062;-80
2021/04/06 06:42:23;;;;;;;372.48;211.40;;;;;;;;;;4967993;28;20038;-80
2021/04/06 06:44:49;;;;;;;372.50;203.20;;;;;;;;;;4973944;28;20041;-85
2021/04/06 06:47:20;;;;;;;390.08;220.10;;;;;;;;;;4975348;28;20030;-81
2021/04/06 06:49:46;;;;;;;;;;;;;;;;;;4978563;28;20386;-79
2021/04/06 06:52:32;;;;;;;429.13;208.43;;;;;;;;;;4975817;28;19910;-81
2021/04/06 06:55:00;;;;;;;442.17;216.45;;;;;;;;;;4967401;28;20042;-82
2021/04/06 06:57:29;;;;;;;475.42;230.65;;;;;;;;;;4973095;28;20031;-82
2021/04/06 07:00:02;;;;;;;553.92;255.10;;;;;;;;;;4980182;28;20037;-79
2021/04/06 07:02:29;;;;;;;368.05;219.82;;;;;;;;;;4966351;28;20062;-81
2021/04/06 07:05:16;;;;;;;367.67;224.10;;;;;;;;;;4989238;28;20054;-82
2021/04/06 07:07:49;;;;;;;360.90;215.68;;;;;;;;;;4973524;28;20029;-80
2021/04/06 07:10:15;;;;;;;358.52;216.55;;;;;;;;;;4968099;28;20033;-81
2021/04/06 07:12:46;;;;;;;356.17;213.27;;;;;;;;;;4975172;28;20034;-84
2021/04/06 07:15:13;;;;;;;362.65;216.88;;;;;;;;;;4972704;28;20505;-85
2021/04/06 07:17:42;;;;;;;363.13;221.10;;;;;;;;;;4971615;28;20077;-85
2021/04/06 07:20:09;;;;;;;361.45;220.88;;;;;;;;;;4972631;28;20770;-80
2021/04/06 07:22:36;;;;;;;360.95;217.55;;;;;;;;;;4977246;28;20041;-81
2021/04/06 07:25:02;;;;;;;368.80;225.25;;;;;;;;;;4971056;28;20529;-86
2021/04/06 07:27:28;;;;;;;366.52;228.18;;;;;;;;;;4971507;28;20030;-81
2021/04/06 07:29:55;;;;;;;369.15;226.68;;;;;;;;;;4972540;28;20038;-84
2021/04/06 07:32:21;;;;;;;366.25;228.50;;;;;;;;;;4971203;28;20077;-78
2021/04/06 07:34:47;;;;;;;375.70;233.98;;;;;;;;;;4975388;28;20041;-82
2021/04/06 07:37:13;;;;;;;380.63;238.05;;;;;;;;;;4975990;28;20026;-81
2021/04/06 07:39:39;;;;;;;378.55;240.90;;;;;;;;;;4980177;28;20026;-81
2021/04/06 07:42:05;;;;;;;380.35;250.90;;;;;;;;;;4974008;28;20042;-78
2021/04/06 07:44:35;;;;;;;373.60;241.35;;;;;;;;;;4992754;28;20414;-77
2021/04/06 07:47:01;;;;;;;373.85;237.93;;;;;;;;;;4988519;28;20026;-80
2021/04/06 07:49:30;;;;;;;376.83;240.48;;;;;;;;;;4975413;28;20029;-80
2021/04/06 07:51:57;;;;;;;374.38;239.98;;;;;;;;;;4990189;28;20022;-78
2021/04/06 07:54:25;;;;;;;376.58;246.70;;;;;;;;;;4973195;28;20062;-77
2021/04/06 07:56:52;;;;;;;370.33;246.40;;;;;;;;;;4978329;28;20054;-79
2021/04/06 07:59:21;;;;;;;369.08;233.07;;;;;;;;;;4989867;28;20026;-80
2021/04/06 08:01:48;;;;;;;362.23;228.00;;;;;;;;;;4963008;28;20442;-76
2021/04/06 08:04:40;;;;;;;368.42;233.70;;;;;;;;;;4975033;28;20162;-75
2021/04/06 08:07:22;;;;;;;356.27;216.30;;;;;;;;;;4957934;28;20034;-75
2021/04/06 08:10:02;;;;;;;367.40;227.35;;;;;;;;;;4989009;28;20046;-74
2021/04/06 08:12:35;;;;;;;363.10;223.00;;;;;;;;;;4966938;28;20031;-76
2021/04/06 08:15:01;;;;;;;359.30;215.82;;;;;;;;;;4978454;28;20038;-79
2021/04/06 08:17:27;;;;;;;362.13;223.57;;;;;;;;;;4979695;28;20029;-80
2021/04/06 08:19:53;;;;;;;366.83;219.85;;;;;;;;;;4994927;28;20054;-81
2021/04/06 08:22:20;;;;;;;365.63;226.05;;;;;;;;;;4972532;28;20029;-81
2021/04/06 08:24:46;;;;;;;369.60;231.07;;;;;;;;;;4975070;28;20027;-78
2021/04/06 08:27:30;;;;;;;374.83;239.65;;;;;;;;;;4991765;28;20022;-81
2021/04/06 08:30:15;;;;;;;374.17;241.20;;;;;;;;;;4990605;28;20038;-81
2021/04/06 08:32:41;;;;;;;382.25;245.30;;;;;;;;;;4989478;28;20072;-80
2021/04/06 08:35:07;;;;;;;384.63;253.38;;;;;;;;;;4975533;28;20053;-80
2021/04/06 08:37:35;;;;;;;378.05;257.30;;;;;;;;;;4972211;28;20038;-83
2021/04/06 08:40:01;;;;;;;385.58;263.52;;;;;;;;;;4993598;28;20768;-81
2021/04/06 08:42:27;;;;;;;384.55;268.35;;;;;;;;;;4967118;28;20042;-78
2021/04/06 08:45:00;;;;;;;386.52;274.13;;;;;;;;;;4969720;28;20023;-80
2021/04/06 08:47:56;;;;;;;382.77;261.42;;;;;;;;;;4975769;28;20022;-78
2021/04/06 08:50:35;;;;;;;390.80;257.48;;;;;;;;;;4963295;28;21313;-81
2021/04/06 08:53:01;;;;;;;394.17;260.60;;;;;;;;;;4990598;28;20387;-79
2021/04/06 08:55:27;;;;;;;391.77;247.85;;;;;;;;;;4974914;28;20030;-78
2021/04/06 08:57:57;;;;;;;414.05;247.35;;;;;;;;;;4983376;28;20497;-78
2021/04/06 09:00:25;;;;;;;486.52;270.45;;;;;;;;;;4973146;28;20032;-76
2021/04/06 09:03:00;;;;;;;574.70;313.75;;;;;;;;;;4974261;28;20075;-77
2021/04/06 09:05:29;;;;;;;384.35;250.45;;;;;;;;;;4989814;28;20049;-78
2021/04/06 09:07:55;;;;;;;384.02;258.75;;;;;;;;;;4978254;28;20050;-77
2021/04/06 09:10:21;;;;;;;386.70;268.48;;;;;;;;;;4975978;28;20022;-76
2021/04/06 09:12:51;;;;;;;390.60;268.38;;;;;;;;;;4992028;28;20026;-78
2021/04/06 09:15:19;;;;;;;539.00;330.20;;;;;;;;;;4997982;28;20022;-75
2021/04/06 09:17:46;;;;;;;578.63;347.50;;;;;;;;;;4997823;28;20504;-78
2021/04/06 09:20:13;;;;;;;380.08;258.75;;;;;;;;;;4992298;28;20029;-78
2021/04/06 09:22:40;;;;;;;384.90;258.38;;;;;;;;;;4969483;28;20195;-75
2021/04/06 09:25:21;;;;;;;371.95;237.55;;;;;;;;;;4969911;28;20080;-79
2021/04/06 09:27:56;;;;;;;370.27;239.82;;;;;;;;;;4970826;28;20140;-79
2021/04/06 09:30:32;;;;;;;371.92;236.55;;;;;;;;;;4971698;28;20350;-80
2021/04/06 09:33:02;;;;;;;374.30;236.73;;;;;;;;;;4963174;28;20509;-77
2021/04/06 09:35:28;;;;;;;364.20;228.88;;;;;;;;;;4964595;28;20031;-79
2021/04/06 09:37:54;;;;;;;367.15;235.85;;;;;;;;;;4969069;28;20066;-83
2021/04/06 09:40:28;;;;;;;369.60;236.18;;;;;;;;;;4985366;28;20027;-78
2021/04/06 09:42:54;;;;;;;372.77;237.57;;;;;;;;;;4992298;28;20035;-81
2021/04/06 09:45:20;;;;;;;369.65;243.48;;;;;;;;;;4966779;28;20052;-78
2021/04/06 09:47:46;;;;;;;368.65;244.57;;;;;;;;;;4993217;28;20029;-79
2021/04/06 09:50:12;;;;;;;379.95;252.45;;;;;;;;;;4996312;28;20086;-78
2021/04/06 09:52:38;;;;;;;374.20;246.98;;;;;;;;;;4976045;28;20030;-79
2021/04/06 09:55:06;;;;;;;369.05;245.75;;;;;;;;;;4977566;28;20030;-78
2021/04/06 09:57:43;;;;;;;372.83;243.55;;;;;;;;;;4974325;28;20054;-79
2021/04/06 10:00:11;;;;;;;390.88;260.45;;;;;;;;;;4976615;28;20691;-79
2021/04/06 10:02:37;;;;;;;392.00;269.95;;;;;;;;;;4973880;28;20689;-81
2021/04/06 10:05:03;;;;;;;388.13;268.05;;;;;;;;;;4996833;28;20030;-77
2021/04/06 10:07:33;;;;;;;399.05;281.90;;;;;;;;;;4970574;28;20141;-81
2021/04/06 10:10:08;;;;;;;312.67;239.02;;;;;;;;;;4975282;28;20015;-77
2021/04/06 10:12:34;;;;;;;392.60;290.88;;;;;;;;;;4969714;28;20069;-82
2021/04/06 10:15:01;;;;;;;395.35;296.35;;;;;;;;;;4975921;28;20046;-77
2021/04/06 10:17:41;;;;;;;399.45;295.50;;;;;;;;;;4984559;28;20549;-79
2021/04/06 10:20:09;;;;;;;399.13;292.10;;;;;;;;;;4992019;28;20026;-79
2021/04/06 10:22:43;;;;;;;389.30;284.52;;;;;;;;;;4973495;28;20687;-78
2021/04/06 10:25:13;;;;;;;390.10;276.70;;;;;;;;;;4970347;28;20038;-77
2021/04/06 10:27:41;;;;;;;384.58;270.45;;;;;;;;;;4991701;28;20871;-80
2021/04/06 10:30:18;;;;;;;382.38;268.90;;;;;;;;;;4987846;28;20525;-78
2021/04/06 10:32:45;;;;;;;384.13;265.05;;;;;;;;;;4989483;28;20018;-76
2021/04/06 10:35:12;;;;;;;381.63;265.35;;;;;;;;;;4974179;28;20038;-76
2021/04/06 10:37:40;;;;;;;380.52;264.40;;;;;;;;;;4988500;28;20037;-76
2021/04/06 10:40:24;;;;;;;389.35;277.27;;;;;;;;;;4997291;28;20061;-76
2021/04/06 10:42:52;;;;;;;395.30;283.42;;;;;;;;;;4971232;28;20034;-75
2021/04/06 10:45:19;;;;;;;387.55;283.42;;;;;;;;;;4983748;28;20073;-78
2021/04/06 10:47:46;;;;;;;383.10;277.88;;;;;;;;;;4973378;28;20434;-78
2021/04/06 10:50:12;;;;;;;392.13;286.58;;;;;;;;;;4988284;28;20057;-79
2021/04/06 10:52:38;;;;;;;393.50;287.08;;;;;;;;;;4986747;28;20053;-76
2021/04/06 10:55:06;;;;;;;395.42;298.08;;;;;;;;;;4987865;28;20065;-75
2021/04/06 10:57:33;;;;;;;395.65;302.80;;;;;;;;;;4990457;28;20038;-79
2021/04/06 11:00:15;;;;;;;396.83;304.70;;;;;;;;;;4972833;28;20034;-78
2021/04/06 11:02:41;;;;;;;393.42;303.70;;;;;;;;;;4974550;28;20113;-78
2021/04/06 11:05:09;;;;;;;397.23;301.70;;;;;;;;;;4971122;28;20505;-77
2021/04/06 11:07:35;;;;;;;400.38;307.38;;;;;;;;;;4984857;28;20022;-76
2021/04/06 11:10:08;;;;;;;402.90;316.17;;;;;;;;;;4986443;28;20030;-81
2021/04/06 11:12:34;;;;;;;399.52;315.17;;;;;;;;;;4981951;28;20466;-77
2021/04/06 11:15:00;;;;;;;405.98;324.38;;;;;;;;;;4988823;28;20037;-76
2021/04/06 11:17:27;;;;;;;404.45;322.27;;;;;;;;;;4997774;28;20030;-75
2021/04/06 11:19:55;;;;;;;395.33;313.73;;;;;;;;;;4971759;28;20062;-79
2021/04/06 11:22:21;;;;;;;399.30;310.38;;;;;;;;;;4988890;28;20027;-78
2021/04/06 11:24:53;;;;;;;392.83;300.65;;;;;;;;;;4996810;28;20427;-80
2021/04/06 11:27:19;;;;;;;391.88;294.63;;;;;;;;;;4988300;28;20061;-78
2021/04/06 11:29:46;;;;;;;394.08;296.27;;;;;;;;;;4972456;28;20459;-77
2021/04/06 11:32:14;;;;;;;399.92;298.58;;;;;;;;;;4983103;28;20451;-76
2021/04/06 11:34:40;;;;;;;391.73;287.83;;;;;;;;;;4968231;28;20052;-75
2021/04/06 11:37:10;;;;;;;388.58;287.77;;;;;;;;;;4982322;28;20077;-78
2021/04/06 11:39:37;;;;;;;395.13;291.55;;;;;;;;;;4966501;28;20040;-76
2021/04/06 11:42:04;;;;;;;406.20;301.25;;;;;;;;;;4972301;28;20030;-79
2021/04/06 11:44:30;;;;;;;397.38;296.70;;;;;;;;;;4975715;28;20041;-80
2021/04/06 11:46:57;;;;;;;402.67;298.75;;;;;;;;;;4989290;28;21777;-75
2021/04/06 11:49:23;;;;;;;402.20;296.95;;;;;;;;;;4983327;28;20030;-78
2021/04/06 11:51:49;;;;;;;397.08;291.63;;;;;;;;;;4989281;28;20037;-80
2021/04/06 11:54:16;;;;;;;404.98;295.98;;;;;;;;;;4969340;28;20011;-78
2021/04/06 11:56:43;;;;;;;404.48;298.73;;;;;;;;;;4990951;28;20030;-78
2021/04/06 11:59:10;;;;;;;408.30;307.80;;;;;;;;;;4970876;28;20034;-76
2021/04/06 12:01:36;;;;;;;606.90;426.42;;;;;;;;;;4989119;28;20034;-79
2021/04/06 12:04:03;;;;;;;410.77;310.23;;;;;;;;;;4964546;28;20033;-76
2021/04/06 12:06:30;;;;;;;641.05;445.25;;;;;;;;;;4986177;28;20100;-77
2021/04/06 12:08:56;;;;;;;394.35;295.75;;;;;;;;;;4979489;28;20031;-78
2021/04/06 12:11:23;;;;;;;394.45;293.20;;;;;;;;;;4968301;28;20031;-78
2021/04/06 12:13:49;;;;;;;384.38;282.92;;;;;;;;;;4976775;28;20744;-76
2021/04/06 12:16:16;;;;;;;385.48;277.90;;;;;;;;;;4974074;28;20471;-75
2021/04/06 12:18:42;;;;;;;383.05;273.83;;;;;;;;;;4969134;28;20113;-78
2021/04/06 12:21:09;;;;;;;379.02;266.25;;;;;;;;;;4990633;28;20089;-78
2021/04/06 12:23:36;;;;;;;381.95;272.67;;;;;;;;;;4990405;28;20391;-75
2021/04/06 12:26:02;;;;;;;381.25;265.67;;;;;;;;;;4971326;28;20062;-78
2021/04/06 12:28:28;;;;;;;379.25;266.60;;;;;;;;;;4975729;28;20054;-76
2021/04/06 12:30:54;;;;;;;384.30;272.73;;;;;;;;;;4967607;28;20089;-76
2021/04/06 12:33:20;;;;;;;382.20;278.55;;;;;;;;;;4969256;28;20546;-74
2021/04/06 12:35:46;;;;;;;384.67;282.70;;;;;;;;;;4988028;28;20034;-76
2021/04/06 12:38:12;;;;;;;386.50;286.52;;;;;;;;;;4986835;28;20084;-78
2021/04/06 12:40:38;;;;;;;389.05;287.38;;;;;;;;;;4976535;28;20022;-78
2021/04/06 12:43:04;;;;;;;381.17;280.83;;;;;;;;;;4978430;28;20044;-76
2021/04/06 12:45:30;;;;;;;379.73;277.67;;;;;;;;;;4972255;28;20117;-77
2021/04/06 12:47:56;;;;;;;381.92;279.10;;;;;;;;;;4973245;28;20030;-76
2021/04/06 12:50:23;;;;;;;382.83;278.13;;;;;;;;;;4969557;28;20399;-76
2021/04/06 12:52:49;;;;;;;383.05;274.83;;;;;;;;;;4983985;28;20474;-74
2021/04/06 12:55:15;;;;;;;382.42;273.08;;;;;;;;;;4969408;28;20058;-77
2021/04/06 12:57:41;;;;;;;379.48;261.05;;;;;;;;;;4970461;28;20066;-76
2021/04/06 13:00:08;;;;;;;385.23;264.40;;;;;;;;;;4966932;28;20026;-80
2021/04/06 13:02:34;;;;;;;383.27;264.60;;;;;;;;;;4974847;28;20560;-76
2021/04/06 13:05:01;;;;;;;375.13;256.65;;;;;;;;;;4965906;28;20038;-79
2021/04/06 13:07:27;;;;;;;379.83;261.92;;;;;;;;;;4989266;28;20070;-77
2021/04/06 13:09:52;;;;;;;376.10;257.15;;;;;;;;;;4985790;28;20573;-75
2021/04/06 13:12:20;;;;;;;381.45;255.15;;;;;;;;;;4968784;28;20031;-76
2021/04/06 13:14:46;;;;;;;380.23;256.67;;;;;;;;;;4965867;28;20565;-77
2021/04/06 13:17:13;;;;;;;372.42;248.05;;;;;;;;;;4974496;28;20114;-76
2021/04/06 13:19:39;;;;;;;383.85;253.50;;;;;;;;;;4989687;28;20469;-77
2021/04/06 13:22:05;;;;;;;381.50;258.27;;;;;;;;;;4964685;28;20137;-79
2021/04/06 13:24:31;;;;;;;374.80;251.73;;;;;;;;;;4991821;28;20031;-78
2021/04/06 13:26:57;;;;;;;371.75;251.70;;;;;;;;;;4987946;28;21890;-76
2021/04/06 13:29:23;;;;;;;375.08;253.52;;;;;;;;;;4991633;28;20054;-80
2021/04/06 13:31:49;;;;;;;374.42;253.15;;;;;;;;;;4973779;28;20495;-80
2021/04/06 13:34:15;;;;;;;377.23;258.08;;;;;;;;;;4994525;28;20129;-82
2021/04/06 13:36:41;;;;;;;369.90;246.45;;;;;;;;;;4971962;28;20379;-79
2021/04/06 13:39:09;;;;;;;373.33;252.73;;;;;;;;;;4973854;28;20082;-80
2021/04/06 13:41:35;;;;;;;374.77;253.98;;;;;;;;;;4989704;28;20023;-77
2021/04/06 13:44:02;;;;;;;379.15;256.92;;;;;;;;;;4968840;28;20023;-77
2021/04/06 13:46:28;;;;;;;372.65;250.50;;;;;;;;;;4986534;28;20034;-78
2021/04/06 13:48:54;;;;;;;385.67;258.45;;;;;;;;;;4971337;28;20030;-77
2021/04/06 13:51:20;;;;;;;376.20;249.65;;;;;;;;;;4971648;28;20062;-76
2021/04/06 13:53:46;;;;;;;378.13;249.88;;;;;;;;;;4984292;28;20050;-78
2021/04/06 13:56:12;;;;;;;379.50;252.07;;;;;;;;;;4970982;28;20026;-79
2021/04/06 13:58:38;;;;;;;378.40;256.48;;;;;;;;;;4993434;28;20056;-78
2021/04/06 14:01:04;;;;;;;381.40;266.45;;;;;;;;;;4991443;28;20026;-79